Weather at Csákvár Air Base [CLOSED]

Public forecast

Using degrees Celsius for public forecast. Weather courtesy of forecast.io.

Closest aviation weather report (METAR) to Csákvár Air Base

Closest report is Győr-Pér International Airport, 29.9 nm (55.4 km) WNW. Retrieved 2022/01/29 07:15 UTC (44 minutes ago):

LHPR 290715Z AUTO 20006KT CAVOK M02/M03 Q1029 NOSIG

Closest aviation forecast (TAF) to Csákvár Air Base

Closest forecast is Budapest Liszt Ferenc International Airport, 34.1 nm (63.2 km) E. Retrieved 2022/01/29 06:07 UTC (2 hours ago):

TAF COR LHBP 290550Z 2906/3006 32007KT CAVOK BECMG 2907/2910 26008KT BECMG 2913/2916 6000 -RA -RASN BKN030 OVC070 TEMPO 2916/3001 23014KT 3000 RASN BKN008 OVC030 BECMG 3001/3003 27013KT 9999 NSW SCT030 TEMPO 3003/3006 30018G30KT 4000 SHRAGS BKN012 SCT020TCU